createdAt,value
2023-03-08T00:01:24.053Z,35.57
2023-03-08T00:03:53.964Z,35.79
2023-03-08T00:06:22.192Z,35.40
2023-03-08T00:08:49.934Z,35.36
2023-03-08T00:11:18.105Z,35.50
2023-03-08T00:13:45.611Z,35.43
2023-03-08T00:16:14.074Z,35.46
2023-03-08T00:18:41.804Z,35.80
2023-03-08T00:21:16.289Z,35.50
2023-03-08T00:23:44.857Z,35.73
2023-03-08T00:26:13.073Z,35.56
2023-03-08T00:28:42.094Z,35.41
2023-03-08T00:31:12.931Z,35.64
2023-03-08T00:33:40.674Z,35.67
2023-03-08T00:36:18.821Z,35.58
2023-03-08T00:38:48.221Z,35.90
2023-03-08T00:41:15.814Z,35.86
2023-03-08T00:43:43.520Z,35.89
2023-03-08T00:46:12.508Z,35.81
2023-03-08T00:48:40.329Z,36.04
2023-03-08T00:51:12.264Z,35.95
2023-03-08T00:53:39.780Z,35.83
2023-03-08T00:56:07.539Z,35.77
2023-03-08T00:58:39.425Z,36.03
2023-03-08T01:01:09.203Z,36.04
2023-03-08T01:03:36.702Z,35.80
2023-03-08T01:06:11.396Z,36.21
2023-03-08T01:08:42.045Z,35.92
2023-03-08T01:11:18.195Z,36.10
2023-03-08T01:13:47.807Z,36.07
2023-03-08T01:16:25.119Z,36.06
2023-03-08T01:18:53.354Z,36.17
2023-03-08T01:21:21.686Z,36.74
2023-03-08T01:23:49.903Z,36.60
2023-03-08T01:26:21.932Z,36.67
2023-03-08T01:28:50.189Z,36.66
2023-03-08T01:31:27.743Z,36.66
2023-03-08T01:33:57.407Z,37.01
2023-03-08T01:36:27.995Z,36.91
2023-03-08T01:38:55.972Z,36.61
2023-03-08T01:41:30.149Z,37.17
2023-03-08T01:43:57.862Z,36.90
2023-03-08T01:46:36.509Z,36.82
2023-03-08T01:49:30.314Z,37.21
2023-03-08T01:52:18.343Z,37.31
2023-03-08T01:54:54.910Z,37.70
2023-03-08T01:57:30.085Z,37.46
2023-03-08T02:00:09.650Z,37.58
2023-03-08T02:02:53.179Z,37.73
2023-03-08T02:05:21.734Z,37.89
2023-03-08T02:07:52.866Z,38.19
2023-03-08T02:10:21.685Z,38.01
2023-03-08T02:12:49.226Z,37.72
2023-03-08T02:15:20.280Z,38.49
2023-03-08T02:17:51.767Z,37.89
2023-03-08T02:20:32.808Z,38.40
2023-03-08T02:23:17.324Z,38.04
2023-03-08T02:25:59.120Z,38.58
2023-03-08T02:28:27.664Z,39.01
2023-03-08T02:30:56.535Z,38.85
2023-03-08T02:33:24.667Z,38.94
2023-03-08T02:35:52.612Z,38.99
2023-03-08T02:38:21.410Z,38.73
2023-03-08T02:40:51.533Z,38.85
2023-03-08T02:43:20.085Z,39.16
2023-03-08T02:45:47.938Z,39.01
2023-03-08T02:48:16.606Z,39.31
2023-03-08T02:50:44.477Z,39.53
2023-03-08T02:53:12.056Z,38.86
2023-03-08T02:55:39.890Z,39.48
2023-03-08T02:58:12.249Z,39.29
2023-03-08T03:00:40.044Z,39.33
2023-03-08T03:03:07.537Z,39.00
2023-03-08T03:05:35.522Z,38.93
2023-03-08T03:08:06.850Z,38.90
2023-03-08T03:13:06.069Z,38.88
2023-03-08T03:15:37.155Z,39.08
2023-03-08T03:18:05.818Z,38.89
2023-03-08T03:20:34.471Z,38.68
2023-03-08T03:23:02.310Z,39.16
2023-03-08T03:25:40.616Z,38.49
2023-03-08T03:28:12.213Z,38.96
2023-03-08T03:30:40.336Z,38.71
2023-03-08T03:33:11.010Z,38.67
2023-03-08T03:35:39.702Z,38.66
2023-03-08T03:38:08.281Z,39.32
2023-03-08T03:40:36.301Z,38.57
2023-03-08T03:43:05.047Z,38.88
2023-03-08T03:45:32.548Z,39.26
2023-03-08T03:48:00.353Z,38.97
2023-03-08T03:50:28.659Z,38.63
2023-03-08T03:53:01.522Z,39.21
2023-03-08T03:55:29.697Z,39.45
2023-03-08T03:57:57.435Z,39.42
2023-03-08T04:00:24.996Z,38.92
2023-03-08T04:03:04.410Z,38.83
2023-03-08T04:05:33.668Z,38.65
2023-03-08T04:08:01.227Z,38.97
2023-03-08T04:10:31.769Z,38.76
2023-03-08T04:13:00.038Z,38.80
2023-03-08T04:15:28.860Z,38.61
2023-03-08T04:17:58.321Z,39.13
2023-03-08T04:20:28.059Z,39.11
2023-03-08T04:22:59.360Z,38.96
2023-03-08T04:25:36.368Z,39.27
2023-03-08T04:28:05.637Z,38.95
2023-03-08T04:30:33.937Z,39.22
2023-03-08T04:33:03.447Z,38.98
2023-03-08T04:35:39.023Z,38.73
2023-03-08T04:38:07.005Z,38.83
2023-03-08T04:40:55.039Z,38.82
2023-03-08T04:43:22.793Z,38.73
2023-03-08T04:45:51.347Z,38.94
2023-03-08T04:48:19.254Z,38.82
2023-03-08T04:50:56.579Z,38.94
2023-03-08T04:53:26.894Z,39.53
2023-03-08T04:55:55.827Z,38.90
2023-03-08T04:58:24.087Z,38.83
2023-03-08T05:00:51.744Z,38.73
2023-03-08T05:03:19.852Z,38.58
2023-03-08T05:05:55.739Z,38.83
2023-03-08T05:08:23.699Z,39.13
2023-03-08T05:11:00.764Z,38.84
2023-03-08T05:13:37.750Z,38.78
2023-03-08T05:16:08.507Z,39.05
2023-03-08T05:18:36.498Z,38.59
2023-03-08T05:21:08.507Z,38.68
2023-03-08T05:23:37.769Z,38.94
2023-03-08T05:26:07.054Z,38.51
2023-03-08T05:28:37.158Z,39.15
2023-03-08T05:31:09.141Z,38.62
2023-03-08T05:33:39.272Z,39.01
2023-03-08T05:36:08.192Z,39.23
2023-03-08T05:38:36.061Z,38.90
2023-03-08T05:41:13.997Z,38.92
2023-03-08T05:43:44.180Z,38.72
2023-03-08T05:46:18.873Z,38.64
2023-03-08T05:48:47.746Z,39.10
2023-03-08T05:51:19.423Z,38.57
2023-03-08T05:53:47.496Z,38.61
2023-03-08T05:56:20.803Z,39.14
2023-03-08T05:58:55.775Z,38.70
2023-03-08T06:01:28.062Z,38.77
2023-03-08T06:04:01.046Z,38.66
2023-03-08T06:06:34.100Z,38.82
2023-03-08T06:09:04.639Z,38.70
2023-03-08T06:11:35.256Z,38.64
2023-03-08T06:14:03.888Z,38.73
2023-03-08T06:16:33.466Z,38.70
2023-03-08T06:19:02.994Z,38.59
2023-03-08T06:21:31.749Z,39.00
2023-03-08T06:24:04.460Z,38.96
2023-03-08T06:26:32.538Z,38.66
2023-03-08T06:29:00.375Z,38.78
2023-03-08T06:31:31.185Z,38.93
2023-03-08T06:33:58.732Z,39.09
2023-03-08T06:36:28.437Z,38.69
2023-03-08T06:38:56.083Z,39.06
2023-03-08T06:41:25.239Z,38.90
2023-03-08T06:43:56.794Z,39.27
2023-03-08T06:46:24.519Z,38.86
2023-03-08T06:48:52.730Z,39.07
2023-03-08T06:51:20.754Z,38.95
2023-03-08T06:53:48.410Z,39.05
2023-03-08T06:56:19.713Z,38.75
2023-03-08T06:58:47.371Z,39.05
2023-03-08T07:01:15.114Z,38.79
2023-03-08T07:03:44.812Z,38.82
2023-03-08T07:06:12.425Z,38.88
2023-03-08T07:08:40.114Z,39.14
2023-03-08T07:11:09.759Z,39.31
2023-03-08T07:13:38.723Z,39.16
2023-03-08T07:16:13.556Z,39.19
2023-03-08T07:18:41.903Z,39.25
2023-03-08T07:21:10.371Z,39.44
2023-03-08T07:23:37.946Z,39.52
2023-03-08T07:26:07.425Z,39.51
2023-03-08T07:28:35.754Z,39.82
2023-03-08T07:31:03.351Z,39.76
2023-03-08T07:33:30.981Z,40.19
2023-03-08T07:36:02.397Z,39.81
2023-03-08T07:38:30.040Z,40.54
2023-03-08T07:40:57.863Z,40.51
2023-03-08T07:43:25.653Z,40.37
2023-03-08T07:46:02.822Z,40.71
2023-03-08T07:48:31.957Z,40.97
2023-03-08T07:51:09.549Z,41.25
2023-03-08T07:53:37.722Z,41.86
2023-03-08T07:56:06.277Z,42.24
2023-03-08T07:58:33.831Z,42.45
2023-03-08T08:01:01.528Z,42.39
2023-03-08T08:03:29.898Z,42.70
2023-03-08T08:06:01.351Z,42.82
2023-03-08T08:08:28.883Z,42.73
2023-03-08T08:10:56.433Z,43.02
2023-03-08T08:13:23.935Z,42.83
2023-03-08T08:16:02.802Z,42.92
2023-03-08T08:18:30.347Z,43.28
2023-03-08T08:21:10.463Z,43.17
2023-03-08T08:23:39.755Z,43.20
2023-03-08T08:26:12.038Z,43.41
2023-03-08T08:28:40.886Z,43.32
2023-03-08T08:31:13.118Z,43.83
2023-03-08T08:33:41.129Z,44.05
2023-03-08T08:36:15.503Z,44.01
2023-03-08T08:38:49.060Z,44.39
2023-03-08T08:41:19.892Z,44.70
2023-03-08T08:43:48.660Z,44.85
2023-03-08T08:46:17.687Z,44.90
2023-03-08T08:48:45.174Z,45.09
2023-03-08T08:51:13.954Z,44.93
2023-03-08T08:53:41.783Z,45.24
2023-03-08T08:56:26.543Z,45.17
2023-03-08T08:59:02.075Z,45.22
2023-03-08T09:01:35.591Z,45.47
2023-03-08T09:04:03.240Z,45.37
2023-03-08T09:06:31.051Z,45.36
2023-03-08T09:08:59.359Z,45.51
2023-03-08T09:11:27.972Z,45.42
2023-03-08T09:13:55.977Z,45.57
2023-03-08T09:16:34.277Z,45.51
2023-03-08T09:19:04.324Z,45.44
2023-03-08T09:21:33.470Z,45.68
2023-03-08T09:24:05.553Z,45.73
2023-03-08T09:26:34.470Z,45.66
2023-03-08T09:29:05.411Z,45.58
2023-03-08T09:31:35.960Z,45.84
2023-03-08T09:34:08.621Z,45.98
2023-03-08T09:36:39.983Z,46.10
2023-03-08T09:39:10.401Z,45.96
2023-03-08T09:41:54.292Z,45.88
2023-03-08T09:44:51.887Z,45.79
2023-03-08T09:47:49.111Z,45.88
2023-03-08T09:50:35.708Z,46.02
2023-03-08T09:53:27.058Z,46.17
2023-03-08T09:56:29.574Z,46.26
2023-03-08T09:59:30.752Z,46.25
2023-03-08T10:02:59.265Z,46.36
2023-03-08T10:05:44.614Z,46.26
2023-03-08T10:08:33.465Z,46.56
2023-03-08T10:11:13.572Z,46.67
2023-03-08T10:13:47.340Z,46.96
2023-03-08T10:16:22.599Z,46.94
2023-03-08T10:19:05.276Z,47.52
2023-03-08T10:21:37.407Z,47.85
2023-03-08T10:24:44.593Z,48.68
2023-03-08T10:27:23.419Z,48.06
2023-03-08T10:29:58.514Z,48.51
2023-03-08T10:32:28.199Z,48.73
2023-03-08T10:35:04.797Z,49.45
2023-03-08T10:37:33.781Z,49.42
2023-03-08T10:40:20.386Z,50.46
2023-03-08T10:43:05.474Z,49.90
2023-03-08T10:45:33.555Z,50.18
2023-03-08T10:48:04.493Z,50.10
2023-03-08T10:50:36.329Z,50.30
2023-03-08T10:53:24.341Z,49.82
2023-03-08T10:55:52.970Z,50.32
2023-03-08T10:58:38.872Z,50.50
2023-03-08T11:01:22.239Z,50.16
2023-03-08T11:04:07.024Z,50.82
2023-03-08T11:06:35.451Z,50.52
2023-03-08T11:09:18.995Z,50.50
2023-03-08T11:11:46.549Z,50.31
2023-03-08T11:14:15.168Z,50.52
2023-03-08T11:17:13.816Z,50.32
2023-03-08T11:19:51.061Z,50.78
2023-03-08T11:22:27.332Z,50.81
2023-03-08T11:25:27.827Z,51.71
2023-03-08T11:28:36.338Z,51.67
2023-03-08T11:31:44.177Z,51.81
2023-03-08T11:34:55.690Z,52.08
2023-03-08T11:38:04.572Z,52.66
2023-03-08T11:41:19.866Z,51.98
2023-03-08T11:44:12.936Z,51.59
2023-03-08T11:47:13.681Z,52.17
2023-03-08T11:50:21.751Z,51.87
2023-03-08T11:53:00.664Z,51.39
2023-03-08T11:55:52.910Z,51.39
2023-03-08T11:58:41.271Z,51.35
2023-03-08T12:01:35.780Z,51.32
2023-03-08T12:04:24.874Z,51.00
2023-03-08T12:06:54.992Z,50.52
2023-03-08T12:09:42.179Z,50.50
2023-03-08T12:12:56.277Z,50.27
2023-03-08T12:15:49.153Z,50.25
2023-03-08T12:18:34.736Z,50.59
2023-03-08T12:21:34.338Z,50.60
2023-03-08T12:24:33.598Z,50.38
2023-03-08T12:27:26.057Z,50.73
2023-03-08T12:30:11.735Z,50.66
2023-03-08T12:32:42.841Z,50.53
2023-03-08T12:35:22.580Z,50.18
2023-03-08T12:38:18.939Z,50.51
2023-03-08T12:40:55.451Z,49.75
2023-03-08T12:43:22.823Z,49.65
2023-03-08T12:46:08.442Z,50.04
2023-03-08T12:48:45.170Z,49.88
2023-03-08T12:51:12.680Z,49.88
2023-03-08T12:53:51.709Z,49.75
2023-03-08T12:56:53.889Z,50.05
2023-03-08T12:59:21.261Z,50.16
2023-03-08T13:01:57.595Z,49.62
2023-03-08T13:04:40.489Z,49.83
2023-03-08T13:07:40.059Z,49.64
2023-03-08T13:10:25.492Z,48.93
2023-03-08T13:13:18.481Z,49.11
2023-03-08T13:16:26.285Z,49.25
2023-03-08T13:19:09.038Z,49.40
2023-03-08T13:21:47.457Z,48.96
2023-03-08T13:24:32.341Z,48.82
2023-03-08T13:27:34.585Z,49.44
2023-03-08T13:30:33.927Z,49.06
2023-03-08T13:33:08.240Z,48.93
2023-03-08T13:35:35.810Z,49.18
2023-03-08T13:38:03.418Z,49.01
2023-03-08T13:40:31.557Z,49.36
2023-03-08T13:43:05.075Z,49.59
2023-03-08T13:45:32.809Z,49.77
2023-03-08T13:48:08.972Z,49.44
2023-03-08T13:50:43.545Z,49.52
2023-03-08T13:53:18.192Z,50.22
2023-03-08T13:55:51.712Z,50.94
2023-03-08T13:58:33.781Z,51.08
2023-03-08T14:01:14.425Z,52.25
2023-03-08T14:03:43.970Z,51.46
2023-03-08T14:06:30.736Z,51.84
2023-03-08T14:09:02.016Z,51.34
2023-03-08T14:11:38.632Z,51.59
2023-03-08T14:14:15.004Z,51.31
2023-03-08T14:16:43.191Z,51.93
2023-03-08T14:19:38.738Z,51.55
2023-03-08T14:22:37.755Z,52.08
2023-03-08T14:25:07.191Z,51.57
2023-03-08T14:27:41.517Z,51.27
2023-03-08T14:30:15.578Z,51.70
2023-03-08T14:33:16.748Z,51.84
2023-03-08T14:35:53.887Z,51.92
2023-03-08T14:38:30.095Z,51.84
2023-03-08T14:41:03.327Z,51.88
2023-03-08T14:43:30.954Z,51.72
2023-03-08T14:46:05.499Z,51.81
2023-03-08T14:48:37.894Z,52.10
2023-03-08T14:51:24.808Z,52.59
2023-03-08T14:54:02.941Z,52.27
2023-03-08T14:56:32.259Z,52.30
2023-03-08T14:59:02.246Z,52.58
2023-03-08T15:01:35.997Z,52.62
2023-03-08T15:04:12.071Z,52.80
2023-03-08T15:06:41.375Z,52.65
2023-03-08T15:09:09.134Z,52.68
2023-03-08T15:11:36.974Z,52.65
2023-03-08T15:14:04.780Z,52.39
2023-03-08T15:16:32.377Z,52.24
2023-03-08T15:18:59.973Z,52.32
2023-03-08T15:21:29.817Z,51.91
2023-03-08T15:23:58.320Z,51.89
2023-03-08T15:26:31.620Z,51.44
2023-03-08T15:29:03.165Z,51.30
2023-03-08T15:31:31.988Z,50.81
2023-03-08T15:34:00.507Z,50.62
2023-03-08T15:36:32.392Z,51.19
2023-03-08T15:39:01.236Z,50.75
2023-03-08T15:41:28.696Z,51.08
2023-03-08T15:43:56.173Z,51.27
2023-03-08T15:46:23.893Z,51.89
2023-03-08T15:48:51.431Z,52.11
2023-03-08T15:51:21.588Z,51.88
2023-03-08T15:53:50.204Z,51.92
2023-03-08T15:56:17.891Z,52.15
2023-03-08T15:58:45.378Z,52.15
2023-03-08T16:01:12.903Z,52.17
2023-03-08T16:03:40.471Z,52.16
2023-03-08T16:06:16.522Z,52.34
2023-03-08T16:08:44.071Z,52.03
2023-03-08T16:11:15.454Z,52.14
2023-03-08T16:13:43.152Z,52.33
2023-03-08T16:16:10.784Z,52.52
2023-03-08T16:18:40.308Z,52.12
2023-03-08T16:21:09.606Z,52.43
2023-03-08T16:23:39.021Z,52.44
2023-03-08T16:26:16.680Z,52.40
2023-03-08T16:28:47.179Z,52.25
2023-03-08T16:31:16.689Z,52.74
2023-03-08T16:33:44.367Z,53.40
2023-03-08T16:36:12.569Z,54.41
2023-03-08T16:38:41.408Z,54.09
2023-03-08T16:41:13.909Z,54.09
2023-03-08T16:43:47.169Z,53.82
2023-03-08T16:46:19.986Z,53.98
2023-03-08T16:48:49.851Z,53.68
2023-03-08T16:51:20.152Z,53.76
2023-03-08T16:53:48.592Z,53.62
2023-03-08T16:56:25.367Z,53.49
2023-03-08T16:58:55.772Z,53.24
2023-03-08T17:01:24.565Z,53.31
2023-03-08T17:03:52.750Z,53.55
2023-03-08T17:06:24.457Z,53.48
2023-03-08T17:08:52.172Z,53.51
2023-03-08T17:11:23.243Z,53.54
2023-03-08T17:13:55.318Z,53.42
2023-03-08T17:16:27.265Z,53.69
2023-03-08T17:18:55.291Z,53.60
2023-03-08T17:21:23.376Z,53.98
2023-03-08T17:23:52.680Z,54.01
2023-03-08T17:26:23.149Z,54.06
2023-03-08T17:28:52.566Z,53.78
2023-03-08T17:31:22.766Z,53.92
2023-03-08T17:33:51.246Z,53.85
2023-03-08T17:36:20.247Z,53.94
2023-03-08T17:38:47.920Z,53.75
2023-03-08T17:41:16.956Z,53.63
2023-03-08T17:43:44.544Z,53.68
2023-03-08T17:46:24.286Z,53.72
2023-03-08T17:48:53.069Z,53.52
2023-03-08T17:51:25.324Z,53.63
2023-03-08T17:53:53.958Z,53.48
2023-03-08T17:56:29.410Z,53.60
2023-03-08T17:58:59.090Z,53.37
2023-03-08T18:01:30.703Z,53.42
2023-03-08T18:03:58.969Z,53.43
2023-03-08T18:06:35.618Z,53.61
2023-03-08T18:09:07.533Z,53.57
2023-03-08T18:11:37.634Z,53.75
2023-03-08T18:14:12.411Z,53.46
2023-03-08T18:16:40.752Z,53.97
2023-03-08T18:19:08.501Z,53.54
2023-03-08T18:21:36.990Z,53.40
2023-03-08T18:24:05.551Z,53.49
2023-03-08T18:26:33.433Z,53.11
2023-03-08T18:29:00.981Z,53.04
2023-03-08T18:31:30.890Z,53.01
2023-03-08T18:33:58.520Z,52.72
2023-03-08T18:36:26.172Z,52.86
2023-03-08T18:38:53.718Z,52.69
2023-03-08T18:41:26.990Z,52.71
2023-03-08T18:43:56.002Z,52.72
2023-03-08T18:46:28.724Z,52.80
2023-03-08T18:48:58.137Z,52.87
2023-03-08T18:51:25.669Z,52.77
2023-03-08T18:53:55.387Z,53.01
2023-03-08T18:56:25.626Z,52.85
2023-03-08T18:58:55.431Z,52.94
2023-03-08T19:01:24.061Z,53.08
2023-03-08T19:03:52.102Z,53.07
2023-03-08T19:06:19.739Z,52.94
2023-03-08T19:08:47.307Z,53.28
2023-03-08T19:11:21.993Z,52.94
2023-03-08T19:13:50.251Z,53.15
2023-03-08T19:16:23.722Z,53.60
2023-03-08T19:18:59.043Z,53.73
2023-03-08T19:21:39.410Z,53.97
2023-03-08T19:24:07.727Z,54.27
2023-03-08T19:26:37.710Z,54.33
2023-03-08T19:29:12.300Z,54.17
2023-03-08T19:31:50.185Z,54.29
2023-03-08T19:34:19.896Z,54.35
2023-03-08T19:36:48.501Z,54.05
2023-03-08T19:39:23.234Z,54.47
2023-03-08T19:42:01.530Z,54.61
2023-03-08T19:44:30.456Z,54.34
2023-03-08T19:46:58.595Z,54.39
2023-03-08T19:49:30.188Z,54.60
2023-03-08T19:52:01.077Z,54.63
2023-03-08T19:54:30.517Z,54.87
2023-03-08T19:56:59.322Z,54.87
2023-03-08T19:59:27.158Z,54.84
2023-03-08T20:01:55.845Z,55.19
2023-03-08T20:04:24.296Z,55.04
2023-03-08T20:06:52.058Z,55.17
2023-03-08T20:09:23.881Z,55.18
2023-03-08T20:11:57.502Z,55.74
2023-03-08T20:14:27.389Z,56.23
2023-03-08T20:16:56.201Z,56.47
2023-03-08T20:19:23.791Z,56.25
2023-03-08T20:21:51.343Z,56.53
2023-03-08T20:24:19.309Z,56.86
2023-03-08T20:26:47.421Z,56.91
2023-03-08T20:29:15.510Z,57.19
2023-03-08T20:31:44.971Z,57.43
2023-03-08T20:34:12.499Z,57.68
2023-03-08T20:36:39.994Z,57.71
2023-03-08T20:39:07.506Z,58.00
2023-03-08T20:41:35.060Z,58.74
2023-03-08T20:44:02.555Z,59.49
2023-03-08T20:46:33.227Z,59.70
2023-03-08T20:49:01.402Z,59.49
2023-03-08T20:51:29.018Z,59.51
2023-03-08T20:53:57.369Z,59.48
2023-03-08T20:56:26.181Z,59.64
2023-03-08T20:58:56.485Z,59.77
2023-03-08T21:01:31.939Z,59.26
2023-03-08T21:03:59.562Z,59.31
2023-03-08T21:06:30.523Z,59.07
2023-03-08T21:08:59.737Z,59.12
2023-03-08T21:11:28.641Z,59.00
2023-03-08T21:13:56.530Z,58.80
2023-03-08T21:16:26.632Z,58.86
2023-03-08T21:18:58.001Z,58.88
2023-03-08T21:21:36.053Z,58.46
2023-03-08T21:24:15.274Z,58.52
2023-03-08T21:26:44.170Z,58.65
2023-03-08T21:29:15.363Z,58.79
2023-03-08T21:31:48.330Z,58.69
2023-03-08T21:34:17.282Z,58.58
2023-03-08T21:36:45.195Z,58.66
2023-03-08T21:39:13.608Z,58.57
2023-03-08T21:41:44.529Z,58.50
2023-03-08T21:44:16.661Z,58.62
2023-03-08T21:46:46.379Z,58.90
2023-03-08T21:49:21.666Z,59.06
2023-03-08T21:51:50.217Z,59.40
2023-03-08T21:54:18.712Z,59.48
2023-03-08T21:56:47.046Z,59.68
2023-03-08T21:59:16.733Z,59.68
2023-03-08T22:01:48.289Z,59.75
2023-03-08T22:04:16.983Z,59.63
2023-03-08T22:06:44.586Z,59.19
2023-03-08T22:09:12.093Z,59.26
2023-03-08T22:11:40.168Z,59.31
2023-03-08T22:14:08.248Z,59.28
2023-03-08T22:16:41.761Z,59.37
2023-03-08T22:19:10.257Z,59.36
2023-03-08T22:21:37.919Z,59.44
2023-03-08T22:24:06.010Z,59.49
2023-03-08T22:26:33.599Z,59.62
2023-03-08T22:29:01.211Z,59.75
2023-03-08T22:31:30.288Z,60.80
2023-03-08T22:33:58.453Z,60.99
2023-03-08T22:36:25.985Z,60.64
2023-03-08T22:38:53.731Z,60.69
2023-03-08T22:41:24.959Z,61.17
2023-03-08T22:43:53.435Z,60.67
2023-03-08T22:46:24.692Z,60.04
2023-03-08T22:48:54.361Z,59.57
2023-03-08T22:51:23.032Z,59.60
2023-03-08T22:53:51.218Z,59.19
2023-03-08T22:56:29.489Z,59.17
2023-03-08T22:58:57.582Z,59.00
2023-03-08T23:01:26.342Z,59.13
2023-03-08T23:03:57.119Z,58.89
2023-03-08T23:06:28.036Z,58.80
2023-03-08T23:08:58.159Z,58.57
2023-03-08T23:11:26.878Z,58.32
2023-03-08T23:13:54.656Z,58.34
2023-03-08T23:16:22.596Z,58.49
2023-03-08T23:18:52.218Z,58.43
2023-03-08T23:21:22.968Z,58.52
2023-03-08T23:23:50.683Z,58.35
2023-03-08T23:26:23.788Z,58.58
2023-03-08T23:28:51.444Z,58.58
2023-03-08T23:31:22.721Z,58.95
2023-03-08T23:33:51.389Z,58.85
2023-03-08T23:36:22.322Z,58.92
2023-03-08T23:38:50.459Z,59.18
2023-03-08T23:41:18.518Z,59.32
2023-03-08T23:43:46.894Z,59.07
2023-03-08T23:46:19.138Z,58.91
2023-03-08T23:48:48.688Z,59.02
2023-03-08T23:51:19.957Z,58.93
2023-03-08T23:53:53.317Z,58.78
2023-03-08T23:56:43.009Z,58.88
2023-03-08T23:59:12.064Z,58.70
